Time;durP1;ratioP1;P1;durP2;ratioP2;P2;SDS_P1;SDS_P2;PMS_P1;PMS_P2;Temp;Humidity;BMP_temperature;BMP_pressure;BME280_temperature;BME280_humidity;BME280_pressure;Samples;Min_cycle;Max_cycle;Signal;HPM_P1;HPM_P2
2021/09/26 00:00:21;;;;;;;12.57;10.30;;;19.60;99.90;;;;;;5005969;28;20422;-83
2021/09/26 00:02:49;;;;;;;11.47;9.73;;;19.50;99.90;;;;;;4977487;28;20448;-83
2021/09/26 00:05:17;;;;;;;11.10;9.93;;;19.50;99.90;;;;;;4987279;28;20782;-83
2021/09/26 00:07:44;;;;;;;11.40;10.40;;;19.60;99.90;;;;;;4987277;28;20481;-83
2021/09/26 00:10:13;;;;;;;13.27;10.33;;;19.60;99.90;;;;;;4987516;28;20431;-82
2021/09/26 00:12:43;;;;;;;10.70;9.60;;;19.50;99.90;;;;;;4988219;28;20410;-83
2021/09/26 00:15:16;;;;;;;13.30;10.50;;;19.50;99.90;;;;;;4987685;28;20445;-83
2021/09/26 00:17:44;;;;;;;10.33;9.23;;;19.50;99.90;;;;;;4988403;28;20402;-84
2021/09/26 00:20:12;;;;;;;10.83;9.83;;;19.50;99.90;;;;;;4970651;28;20469;-83
2021/09/26 00:22:39;;;;;;;15.73;9.90;;;19.40;99.90;;;;;;4987577;28;20414;-82
2021/09/26 00:25:07;;;;;;;12.50;10.60;;;19.50;99.90;;;;;;5000140;28;20417;-83
2021/09/26 00:27:34;;;;;;;14.00;10.03;;;19.50;99.90;;;;;;5005186;28;20449;-82
2021/09/26 00:30:05;;;;;;;12.00;9.83;;;19.40;99.90;;;;;;5006101;28;20489;-83
2021/09/26 00:32:32;;;;;;;9.50;8.70;;;19.50;99.90;;;;;;4988791;28;20439;-83
2021/09/26 00:35:00;;;;;;;12.70;11.40;;;19.40;99.90;;;;;;5005877;28;20417;-82
2021/09/26 00:37:27;;;;;;;13.33;10.90;;;19.40;99.90;;;;;;5006397;28;20597;-82
2021/09/26 00:39:54;;;;;;;12.37;11.07;;;19.40;99.90;;;;;;5004870;28;20412;-82
2021/09/26 00:42:21;;;;;;;10.60;9.57;;;19.30;99.90;;;;;;5006502;28;20477;-83
2021/09/26 00:44:48;;;;;;;12.87;11.37;;;19.20;99.90;;;;;;5005995;28;20429;-82
2021/09/26 00:47:16;;;;;;;11.60;10.50;;;19.30;99.90;;;;;;5006143;28;20478;-83
2021/09/26 00:49:43;;;;;;;10.80;9.80;;;19.40;99.90;;;;;;5005444;28;20409;-84
2021/09/26 00:52:11;;;;;;;10.53;9.43;;;19.40;99.90;;;;;;5006280;28;20461;-82
2021/09/26 00:54:39;;;;;;;12.80;11.23;;;19.50;99.90;;;;;;4989370;28;20431;-82
2021/09/26 00:57:06;;;;;;;11.80;10.60;;;19.50;99.90;;;;;;4988937;28;20409;-81
2021/09/26 00:59:34;;;;;;;14.53;11.63;;;19.40;99.90;;;;;;5006209;28;20477;-81
2021/09/26 01:02:01;;;;;;;12.13;10.43;;;19.40;99.90;;;;;;5006047;28;20408;-82
2021/09/26 01:04:29;;;;;;;12.33;10.83;;;19.50;99.90;;;;;;4987904;28;20493;-82
2021/09/26 01:07:05;;;;;;;12.23;11.03;;;19.50;99.90;;;;;;4999317;28;20427;-83
2021/09/26 01:09:56;;;;;;;14.47;11.37;;;19.50;99.90;;;;;;5005247;28;20437;-81
2021/09/26 01:12:34;;;;;;;12.00;10.80;;;19.60;99.90;;;;;;5004363;28;20641;-81
2021/09/26 01:15:15;;;;;;;13.40;12.00;;;19.60;99.90;;;;;;5004424;28;20485;-81
2021/09/26 01:17:50;;;;;;;11.33;10.30;;;19.50;99.90;;;;;;5006075;28;20438;-84
2021/09/26 01:20:18;;;;;;;11.87;10.67;;;19.40;99.90;;;;;;5005521;28;20423;-83
2021/09/26 01:23:05;;;;;;;12.30;10.03;;;19.40;99.90;;;;;;5005342;28;20438;-83
2021/09/26 01:26:29;;;;;;;13.33;10.50;;;19.40;99.90;;;;;;5005232;28;20382;-83
2021/09/26 01:29:34;;;;;;;12.33;10.40;;;19.30;99.90;;;;;;4947125;29;20489;-83
2021/09/26 01:32:05;;;;;;;15.50;10.40;;;19.30;99.90;;;;;;4948356;29;20443;-83
2021/09/26 01:34:42;;;;;;;14.67;10.37;;;19.40;99.90;;;;;;4994257;28;20438;-82
2021/09/26 01:37:26;;;;;;;11.13;9.23;;;19.40;99.90;;;;;;5007117;28;20411;-82
2021/09/26 01:39:54;;;;;;;12.57;11.27;;;19.40;99.90;;;;;;5006525;28;20382;-83
2021/09/26 01:42:23;;;;;;;13.93;12.27;;;19.20;99.90;;;;;;5006787;28;20429;-83
2021/09/26 01:45:00;;;;;;;15.47;12.60;;;18.90;99.90;;;;;;5006595;28;20605;-83
2021/09/26 01:47:53;;;;;;;13.63;12.10;;;18.90;99.90;;;;;;4989935;28;20454;-83
2021/09/26 01:50:22;;;;;;;19.20;12.53;;;18.50;99.90;;;;;;4987352;28;20438;-83
2021/09/26 01:52:51;;;;;;;16.10;13.50;;;18.30;99.90;;;;;;5008033;28;20711;-83
2021/09/26 01:55:22;;;;;;;14.97;13.40;;;18.40;99.90;;;;;;5007243;28;20406;-83
2021/09/26 01:57:52;;;;;;;13.97;12.17;;;18.50;99.90;;;;;;5008483;28;20630;-83
2021/09/26 02:00:19;;;;;;;13.67;12.30;;;18.70;99.90;;;;;;5009107;28;20384;-83
2021/09/26 02:02:49;;;;;;;16.10;12.73;;;18.60;99.90;;;;;;5006153;28;20734;-82
2021/09/26 02:05:20;;;;;;;13.20;11.27;;;18.60;99.90;;;;;;5006110;28;20421;-82
2021/09/26 02:07:49;;;;;;;16.30;12.23;;;18.70;99.90;;;;;;5005353;28;20498;-82
2021/09/26 02:10:22;;;;;;;14.10;11.93;;;18.80;99.90;;;;;;5005188;28;20563;-82
2021/09/26 02:12:52;;;;;;;14.00;12.47;;;18.80;99.90;;;;;;4987654;28;20422;-82
2021/09/26 02:15:22;;;;;;;13.83;12.27;;;19.00;99.90;;;;;;5004953;28;20739;-81
2021/09/26 02:17:53;;;;;;;13.60;11.43;;;19.00;99.90;;;;;;5005322;28;20598;-82
2021/09/26 02:20:21;;;;;;;15.10;12.50;;;19.10;99.90;;;;;;5005851;28;20407;-83
2021/09/26 02:22:50;;;;;;;15.20;11.63;;;18.80;99.90;;;;;;5005910;28;20397;-82
2021/09/26 02:25:18;;;;;;;14.33;11.43;;;18.70;99.90;;;;;;5006100;28;20585;-82
2021/09/26 02:27:47;;;;;;;13.20;11.80;;;18.60;99.90;;;;;;5005948;28;20473;-82
2021/09/26 02:30:15;;;;;;;12.63;11.43;;;18.50;99.90;;;;;;5005526;28;20498;-83
2021/09/26 02:32:45;;;;;;;14.30;12.80;;;18.50;99.90;;;;;;5006467;28;20457;-83
2021/09/26 02:35:13;;;;;;;13.37;11.40;;;18.30;99.90;;;;;;5006816;28;20704;-82
2021/09/26 02:37:42;;;;;;;16.73;11.70;;;18.40;99.90;;;;;;4989821;28;20444;-83
2021/09/26 02:40:11;;;;;;;14.03;12.30;;;18.60;99.90;;;;;;5008418;28;20442;-83
2021/09/26 02:42:52;;;;;;;16.40;12.67;;;18.70;99.90;;;;;;5008244;28;20420;-82
2021/09/26 02:45:53;;;;;;;20.00;13.33;;;18.80;99.90;;;;;;5008423;28;20448;-82
2021/09/26 02:48:29;;;;;;;13.10;11.73;;;18.80;99.90;;;;;;5008207;28;20638;-85
2021/09/26 02:50:57;;;;;;;14.07;11.33;;;19.00;99.90;;;;;;5006782;28;20417;-84
2021/09/26 02:53:29;;;;;;;13.40;12.03;;;19.00;99.90;;;;;;5007408;28;20423;-83
2021/09/26 02:55:59;;;;;;;12.67;11.37;;;18.80;99.90;;;;;;4976178;28;20418;-83
2021/09/26 02:58:27;;;;;;;14.23;12.27;;;18.60;99.90;;;;;;5006756;28;20460;-83
2021/09/26 03:00:55;;;;;;;18.00;13.20;;;18.60;99.90;;;;;;5006595;28;20456;-81
2021/09/26 03:03:27;;;;;;;12.93;11.20;;;18.50;99.90;;;;;;4980040;28;20425;-83
2021/09/26 03:05:56;;;;;;;11.90;10.80;;;18.40;99.90;;;;;;4988647;28;20402;-83
2021/09/26 03:08:23;;;;;;;13.83;11.70;;;18.40;99.90;;;;;;4988759;28;20818;-82
2021/09/26 03:10:54;;;;;;;10.97;9.37;;;18.50;99.90;;;;;;4988561;28;20410;-82
2021/09/26 03:13:21;;;;;;;12.60;11.30;;;18.40;99.90;;;;;;4978139;28;20405;-81
2021/09/26 03:15:49;;;;;;;11.20;10.10;;;18.50;99.90;;;;;;4990904;28;20572;-81
2021/09/26 03:18:16;;;;;;;13.63;10.23;;;18.60;99.90;;;;;;5006398;28;20441;-80
2021/09/26 03:20:44;;;;;;;11.77;9.37;;;18.80;99.90;;;;;;5006725;28;20398;-83
2021/09/26 03:23:12;;;;;;;13.80;10.70;;;18.70;99.90;;;;;;5015083;28;20481;-83
2021/09/26 03:25:39;;;;;;;10.30;9.40;;;18.60;99.90;;;;;;5014437;28;20438;-83
2021/09/26 03:28:07;;;;;;;13.83;11.67;;;18.80;99.90;;;;;;5012853;28;20456;-83
2021/09/26 03:30:35;;;;;;;10.00;8.97;;;18.70;99.90;;;;;;5013763;28;20443;-83
2021/09/26 03:33:02;;;;;;;16.63;11.60;;;18.70;99.90;;;;;;5013530;28;20412;-83
2021/09/26 03:35:30;;;;;;;12.07;10.20;;;18.70;99.90;;;;;;5010192;28;20412;-83
2021/09/26 03:37:57;;;;;;;10.23;9.20;;;18.80;99.90;;;;;;5013186;28;20427;-84
2021/09/26 03:40:24;;;;;;;13.90;11.37;;;18.70;99.90;;;;;;5012007;28;20409;-83
2021/09/26 03:42:51;;;;;;;10.87;9.87;;;18.60;99.90;;;;;;5010118;28;20434;-83
2021/09/26 03:45:18;;;;;;;13.97;11.13;;;18.70;99.90;;;;;;5010169;28;20451;-83
2021/09/26 03:47:46;;;;;;;12.13;9.80;;;18.80;99.90;;;;;;5009017;28;20450;-84
2021/09/26 03:50:14;;;;;;;12.77;10.67;;;18.90;99.90;;;;;;5008105;28;20738;-83
2021/09/26 03:52:41;;;;;;;16.17;10.80;;;19.00;99.90;;;;;;4991157;28;20404;-84
2021/09/26 03:55:12;;;;;;;11.43;9.53;;;18.90;99.90;;;;;;5007874;28;20436;-84
2021/09/26 03:57:40;;;;;;;10.30;9.33;;;18.80;99.90;;;;;;5006819;28;20445;-83
2021/09/26 04:00:11;;;;;;;13.03;9.60;;;18.90;99.90;;;;;;4990268;28;20402;-82
2021/09/26 04:02:38;;;;;;;12.43;9.33;;;18.70;99.90;;;;;;5007865;28;20390;-83
2021/09/26 04:05:07;;;;;;;9.80;8.83;;;18.50;99.90;;;;;;5006941;28;20575;-81
2021/09/26 04:07:35;;;;;;;12.30;10.13;;;18.50;99.90;;;;;;4989722;28;20405;-81
2021/09/26 04:10:06;;;;;;;9.93;9.00;;;18.40;99.90;;;;;;5006832;28;20413;-81
2021/09/26 04:12:34;;;;;;;10.47;9.37;;;18.30;99.90;;;;;;5006759;28;20418;-81
2021/09/26 04:15:02;;;;;;;10.33;9.33;;;18.50;99.90;;;;;;5006540;28;20451;-80
2021/09/26 04:17:29;;;;;;;12.00;10.77;;;18.30;99.90;;;;;;5006729;28;20434;-80
2021/09/26 04:19:56;;;;;;;10.73;9.60;;;18.40;99.90;;;;;;4989550;28;20438;-80
2021/09/26 04:22:24;;;;;;;11.40;10.40;;;18.50;99.90;;;;;;5005982;28;20414;-81
2021/09/26 04:24:51;;;;;;;12.77;11.37;;;18.70;99.90;;;;;;5006114;28;20413;-83
2021/09/26 04:27:19;;;;;;;10.33;9.13;;;18.80;99.90;;;;;;5005957;28;20441;-83
2021/09/26 04:29:46;;;;;;;12.13;10.80;;;18.80;99.90;;;;;;5007063;28;20455;-83
2021/09/26 04:32:13;;;;;;;14.10;10.40;;;18.80;99.90;;;;;;5007119;28;20409;-82
2021/09/26 04:34:41;;;;;;;10.57;9.67;;;18.50;99.90;;;;;;4991976;28;20458;-81
2021/09/26 04:37:09;;;;;;;12.10;10.93;;;18.50;99.90;;;;;;4987284;28;20720;-83
2021/09/26 04:39:36;;;;;;;16.20;10.07;;;18.60;99.90;;;;;;4987102;28;20413;-81
2021/09/26 04:42:05;;;;;;;13.17;10.40;;;18.40;99.90;;;;;;4986083;28;20408;-82
2021/09/26 04:44:33;;;;;;;14.57;11.30;;;18.40;99.90;;;;;;4985517;28;20435;-83
2021/09/26 04:47:00;;;;;;;10.93;10.03;;;18.20;99.90;;;;;;4977196;28;20475;-83
2021/09/26 04:49:30;;;;;;;12.73;11.50;;;18.10;99.90;;;;;;5003830;28;20501;-82
2021/09/26 04:51:59;;;;;;;11.60;10.50;;;18.20;99.90;;;;;;4990523;28;20399;-80
2021/09/26 04:54:27;;;;;;;10.77;9.67;;;18.30;99.90;;;;;;4988049;28;20732;-82
2021/09/26 04:56:55;;;;;;;13.23;11.83;;;18.40;99.90;;;;;;4969961;28;20414;-81
2021/09/26 04:59:24;;;;;;;13.00;11.00;;;18.60;99.90;;;;;;4986954;28;20420;-81
2021/09/26 05:01:51;;;;;;;11.40;10.20;;;18.70;99.90;;;;;;4986257;28;20442;-81
2021/09/26 05:04:19;;;;;;;11.30;9.80;;;18.70;99.90;;;;;;4986980;28;20746;-81
2021/09/26 05:06:46;;;;;;;11.63;10.50;;;18.70;99.90;;;;;;4986871;28;20749;-81
2021/09/26 05:09:14;;;;;;;12.80;10.90;;;18.60;99.90;;;;;;4986874;28;20454;-82
2021/09/26 05:11:41;;;;;;;14.33;11.50;;;18.50;99.90;;;;;;4969340;28;20410;-82
2021/09/26 05:14:08;;;;;;;12.70;11.40;;;18.40;99.90;;;;;;4969533;28;20619;-82
2021/09/26 05:16:36;;;;;;;11.57;10.47;;;18.10;99.90;;;;;;4986669;28;20397;-79
2021/09/26 05:19:04;;;;;;;13.87;12.40;;;17.90;99.90;;;;;;4986277;28;20417;-81
2021/09/26 05:21:32;;;;;;;13.40;11.83;;;17.90;99.90;;;;;;4985976;28;20435;-81
2021/09/26 05:24:00;;;;;;;14.00;10.80;;;18.00;99.90;;;;;;4985397;28;20416;-80
2021/09/26 05:26:27;;;;;;;13.53;11.20;;;18.10;99.90;;;;;;4972268;28;20409;-81
2021/09/26 05:28:54;;;;;;;14.33;10.93;;;17.90;99.90;;;;;;5005035;28;20474;-86
2021/09/26 05:31:22;;;;;;;15.80;10.80;;;17.70;99.90;;;;;;5005183;28;20621;-82
2021/09/26 05:33:50;;;;;;;11.60;10.40;;;18.00;99.90;;;;;;4988368;28;20413;-82
2021/09/26 05:36:17;;;;;;;13.40;11.67;;;17.90;99.90;;;;;;5005253;28;20423;-83
2021/09/26 05:38:44;;;;;;;11.40;10.40;;;17.80;99.90;;;;;;5005432;28;20419;-83
2021/09/26 05:41:12;;;;;;;12.93;11.77;;;17.80;99.90;;;;;;5005236;28;20735;-83
2021/09/26 05:43:39;;;;;;;12.27;11.13;;;17.90;99.90;;;;;;5005398;28;20442;-83
2021/09/26 05:46:06;;;;;;;14.40;11.30;;;17.90;99.90;;;;;;5005550;28;20417;-82
2021/09/26 05:48:33;;;;;;;15.47;11.30;;;18.00;99.90;;;;;;5005622;28;20436;-85
2021/09/26 05:51:00;;;;;;;11.80;9.97;;;18.20;99.90;;;;;;5003743;28;20416;-82
2021/09/26 05:53:28;;;;;;;14.60;11.80;;;18.10;99.90;;;;;;5005647;28;20464;-82
2021/09/26 05:55:55;;;;;;;12.53;10.83;;;18.10;99.90;;;;;;4988004;28;20433;-83
2021/09/26 05:58:23;;;;;;;13.80;12.47;;;18.00;99.90;;;;;;5005111;28;20431;-82
2021/09/26 06:00:50;;;;;;;14.60;12.57;;;18.20;99.90;;;;;;5001688;28;20731;-85
2021/09/26 06:03:18;;;;;;;11.73;10.70;;;18.50;99.90;;;;;;4995302;28;20476;-83
2021/09/26 06:05:45;;;;;;;11.60;9.80;;;18.60;99.90;;;;;;5004460;28;20432;-83
2021/09/26 06:08:13;;;;;;;11.53;10.10;;;18.40;99.90;;;;;;4996155;28;20440;-83
2021/09/26 06:10:40;;;;;;;14.70;10.50;;;18.60;99.90;;;;;;4984581;28;20410;-83
2021/09/26 06:13:08;;;;;;;11.70;9.60;;;18.90;99.90;;;;;;5015388;28;20447;-84
2021/09/26 06:15:35;;;;;;;17.40;11.10;;;18.60;99.90;;;;;;5009716;28;20740;-86
2021/09/26 06:18:03;;;;;;;14.50;11.83;;;18.70;99.90;;;;;;5009650;28;20618;-87
2021/09/26 06:20:30;;;;;;;11.20;10.00;;;18.60;99.90;;;;;;5008912;28;20435;-84
2021/09/26 06:22:58;;;;;;;9.50;8.50;;;18.70;99.90;;;;;;5008531;28;20409;-83
2021/09/26 06:25:28;;;;;;;11.10;10.00;;;18.60;99.90;;;;;;5008968;28;20429;-83
2021/09/26 06:27:57;;;;;;;10.97;9.87;;;18.80;99.90;;;;;;5009259;28;20417;-84
2021/09/26 06:30:24;;;;;;;11.90;10.67;;;18.90;99.90;;;;;;5008878;28;20448;-83
2021/09/26 06:32:52;;;;;;;13.40;9.90;;;19.10;99.90;;;;;;5008892;28;20438;-84
2021/09/26 06:35:19;;;;;;;12.90;8.57;;;19.30;99.90;;;;;;5008986;28;20441;-83
2021/09/26 06:37:46;;;;;;;12.27;10.23;;;19.40;99.90;;;;;;4991873;28;20511;-84
2021/09/26 06:40:14;;;;;;;11.03;9.87;;;19.40;99.90;;;;;;5009155;28;20452;-83
2021/09/26 06:42:41;;;;;;;13.47;10.50;;;19.30;99.90;;;;;;5008926;28;20757;-84
2021/09/26 06:45:10;;;;;;;10.00;9.00;;;19.60;99.90;;;;;;4991380;28;20431;-85
2021/09/26 06:47:37;;;;;;;10.30;9.23;;;19.80;99.90;;;;;;4991773;28;20470;-85
2021/09/26 06:50:06;;;;;;;10.00;9.00;;;19.80;99.90;;;;;;5008204;28;20533;-84
2021/09/26 06:52:34;;;;;;;10.30;9.30;;;19.80;99.90;;;;;;5009544;28;20453;-83
2021/09/26 06:55:02;;;;;;;9.93;8.93;;;19.70;99.90;;;;;;5006721;28;20489;-84
2021/09/26 06:57:29;;;;;;;9.80;7.10;;;19.80;99.90;;;;;;5003833;28;20421;-83
2021/09/26 06:59:56;;;;;;;10.10;8.57;;;20.00;99.90;;;;;;4988976;28;20482;-83
2021/09/26 07:02:24;;;;;;;8.97;8.17;;;20.20;99.90;;;;;;4992002;28;20431;-84
2021/09/26 07:04:53;;;;;;;8.37;7.63;;;20.20;99.90;;;;;;4992109;28;20497;-83
2021/09/26 07:07:22;;;;;;;10.40;8.27;;;20.00;99.90;;;;;;5007484;28;20466;-82
2021/09/26 07:09:51;;;;;;;10.80;7.93;;;20.00;99.90;;;;;;4987981;28;20505;-87
2021/09/26 07:12:19;;;;;;;8.50;7.70;;;20.40;99.90;;;;;;5005655;28;20415;-85
2021/09/26 07:14:51;;;;;;;8.13;7.43;;;20.50;99.90;;;;;;5006417;28;20423;-84
2021/09/26 07:17:20;;;;;;;8.70;8.00;;;20.80;99.90;;;;;;4997592;28;20422;-84
2021/09/26 07:19:48;;;;;;;9.60;8.60;;;20.90;99.90;;;;;;5007542;28;20470;-85
2021/09/26 07:22:19;;;;;;;7.30;6.60;;;21.20;99.90;;;;;;5007172;28;20442;-83
2021/09/26 07:24:46;;;;;;;8.87;8.10;;;22.30;99.90;;;;;;5006672;28;20424;-83
2021/09/26 07:27:15;;;;;;;7.43;6.60;;;23.20;99.90;;;;;;5007688;28;20784;-84
2021/09/26 07:29:43;;;;;;;8.00;7.30;;;22.90;99.90;;;;;;5007348;28;20445;-82
2021/09/26 07:32:12;;;;;;;7.37;6.77;;;23.10;99.90;;;;;;5007256;28;20416;-83
2021/09/26 07:34:40;;;;;;;7.47;6.87;;;22.80;99.90;;;;;;5007355;28;20422;-81
2021/09/26 07:37:08;;;;;;;7.53;6.93;;;22.80;99.90;;;;;;5007410;28;20394;-83
2021/09/26 07:39:39;;;;;;;8.83;6.40;;;23.30;99.90;;;;;;5007232;28;20431;-83
2021/09/26 07:42:06;;;;;;;8.30;6.93;;;23.40;99.90;;;;;;4990154;28;20434;-83
2021/09/26 07:44:34;;;;;;;7.23;6.63;;;23.40;99.90;;;;;;5006704;28;20454;-82
2021/09/26 07:47:02;;;;;;;6.37;5.87;;;23.60;99.90;;;;;;5007085;28;20435;-84
2021/09/26 07:49:29;;;;;;;6.30;5.70;;;23.30;99.90;;;;;;5006778;28;20550;-86
2021/09/26 07:51:56;;;;;;;6.70;6.07;;;23.10;99.90;;;;;;5007364;28;20444;-87
2021/09/26 07:54:24;;;;;;;6.03;5.00;;;23.00;99.90;;;;;;5007734;28;20508;-85
2021/09/26 07:56:51;;;;;;;5.67;5.17;;;22.70;99.90;;;;;;5007471;28;20451;-83
2021/09/26 07:59:19;;;;;;;5.00;4.70;;;22.50;99.90;;;;;;5003461;28;20424;-82
2021/09/26 08:01:48;;;;;;;5.47;5.07;;;22.90;99.90;;;;;;5007510;28;20406;-87
2021/09/26 08:04:16;;;;;;;6.17;5.77;;;23.50;99.90;;;;;;5001186;28;20414;-84
2021/09/26 08:06:44;;;;;;;5.53;5.13;;;24.30;99.90;;;;;;4999280;28;20431;-88
2021/09/26 08:09:11;;;;;;;5.40;5.10;;;24.90;99.90;;;;;;5005706;28;20454;-85
2021/09/26 08:11:38;;;;;;;7.50;6.80;;;25.90;99.90;;;;;;5001844;28;20653;-84
2021/09/26 08:14:05;;;;;;;7.03;6.63;;;27.70;99.90;;;;;;5005412;28;20641;-86
2021/09/26 08:16:33;;;;;;;6.80;6.40;;;27.50;99.90;;;;;;5005993;28;20470;-83
2021/09/26 08:19:00;;;;;;;6.90;6.40;;;27.00;99.90;;;;;;5004984;28;20471;-85
2021/09/26 08:21:28;;;;;;;6.67;6.27;;;25.70;99.90;;;;;;4976255;28;20444;-88
2021/09/26 08:23:58;;;;;;;6.07;5.67;;;25.00;99.90;;;;;;5006831;28;20443;-81
2021/09/26 08:26:25;;;;;;;5.83;5.53;;;25.80;99.90;;;;;;5002939;28;20446;-86
2021/09/26 08:28:52;;;;;;;5.83;5.43;;;25.30;99.90;;;;;;5003599;28;20439;-85
2021/09/26 08:31:20;;;;;;;7.63;7.03;;;25.30;99.90;;;;;;5001998;28;20513;-83
2021/09/26 08:33:47;;;;;;;8.53;6.03;;;25.30;99.90;;;;;;4994559;28;20471;-84
2021/09/26 08:36:15;;;;;;;10.30;9.50;;;25.40;99.90;;;;;;5004105;28;20463;-84
2021/09/26 08:38:42;;;;;;;10.80;9.90;;;25.30;99.90;;;;;;5004355;28;20457;-82
2021/09/26 08:41:10;;;;;;;6.73;6.23;;;26.10;99.90;;;;;;4990182;28;20440;-88
2021/09/26 08:43:37;;;;;;;5.90;5.60;;;27.70;99.90;;;;;;5004583;28;20456;-88
2021/09/26 08:46:06;;;;;;;6.63;6.23;;;29.10;99.90;;;;;;4997488;28;20470;-85
2021/09/26 08:48:34;;;;;;;7.00;6.63;;;28.80;99.30;;;;;;5003631;28;20528;-89
2021/09/26 08:51:02;;;;;;;7.27;6.67;;;28.30;99.90;;;;;;5005311;28;20763;-86
2021/09/26 08:53:29;;;;;;;6.60;6.30;;;28.90;99.20;;;;;;5003950;28;20625;-88
2021/09/26 08:55:57;;;;;;;5.93;5.73;;;28.00;99.50;;;;;;4988137;28;20442;-89
2021/09/26 08:58:24;;;;;;;7.60;7.20;;;27.90;99.70;;;;;;5005541;28;20439;-87
2021/09/26 09:00:53;;;;;;;6.90;6.50;;;28.60;99.10;;;;;;4998198;28;20438;-90
2021/09/26 09:03:21;;;;;;;7.50;7.20;;;28.50;98.50;;;;;;4995855;28;20782;-86
2021/09/26 09:05:52;;;;;;;7.03;6.70;;;28.80;98.00;;;;;;5005853;28;20439;-87
2021/09/26 09:08:23;;;;;;;6.50;6.10;;;29.20;97.30;;;;;;5004414;28;20443;-85
2021/09/26 09:10:56;;;;;;;7.13;6.83;;;29.10;97.50;;;;;;5004443;28;20464;-86
2021/09/26 09:13:36;;;;;;;6.60;6.30;;;29.40;96.50;;;;;;4968117;28;20475;-85
2021/09/26 09:16:06;;;;;;;7.17;6.77;;;29.60;95.60;;;;;;5001130;28;20446;-86
2021/09/26 09:18:52;;;;;;;6.27;5.97;;;28.90;96.30;;;;;;5004380;28;20439;-85
2021/09/26 09:21:25;;;;;;;5.93;5.73;;;27.80;97.80;;;;;;5007127;28;20437;-88
2021/09/26 09:24:12;;;;;;;6.60;6.30;;;26.80;99.60;;;;;;5003845;28;20441;-84
2021/09/26 09:26:41;;;;;;;5.20;5.00;;;25.50;99.90;;;;;;5003765;28;20769;-85
2021/09/26 09:29:09;;;;;;;5.80;5.50;;;24.90;99.90;;;;;;5004906;28;20467;-84
2021/09/26 09:31:51;;;;;;;6.07;5.70;;;25.30;99.90;;;;;;5004025;28;20514;-85
2021/09/26 09:34:30;;;;;;;5.00;4.80;;;25.10;99.90;;;;;;4986373;28;20459;-87
2021/09/26 09:37:19;;;;;;;5.63;5.33;;;24.50;99.90;;;;;;4986266;28;20772;-88
2021/09/26 09:40:16;;;;;;;5.50;5.20;;;24.10;99.90;;;;;;4995515;28;20422;-86
2021/09/26 09:42:52;;;;;;;4.70;4.50;;;23.60;99.90;;;;;;4987964;28;20451;-90
2021/09/26 09:45:31;;;;;;;4.20;4.00;;;23.60;99.90;;;;;;5009926;28;20463;-82
2021/09/26 09:48:07;;;;;;;5.10;4.80;;;23.60;99.90;;;;;;5010152;28;20428;-85
2021/09/26 09:50:34;;;;;;;4.70;4.40;;;23.40;99.90;;;;;;4986273;28;20889;-84
2021/09/26 09:53:01;;;;;;;5.10;4.70;;;23.20;99.90;;;;;;5000239;28;20470;-88
2021/09/26 09:55:29;;;;;;;4.20;4.00;;;23.10;99.90;;;;;;5007407;28;20444;-87
2021/09/26 09:58:16;;;;;;;5.07;4.67;;;23.10;99.90;;;;;;5009151;28;20432;-84
2021/09/26 10:00:55;;;;;;;4.53;4.30;;;23.00;99.90;;;;;;5002365;28;20478;-84
2021/09/26 10:03:34;;;;;;;4.27;3.87;;;23.00;99.90;;;;;;5003793;28;20470;-85
2021/09/26 10:06:16;;;;;;;4.20;4.00;;;23.20;99.90;;;;;;4987394;28;20439;-89
2021/09/26 10:08:45;;;;;;;4.57;4.23;;;23.40;99.90;;;;;;4999138;28;20443;-88
2021/09/26 10:11:24;;;;;;;5.23;4.83;;;23.50;99.90;;;;;;4987399;28;20558;-83
2021/09/26 10:13:53;;;;;;;4.10;3.90;;;23.50;99.90;;;;;;4988443;28;20502;-87
2021/09/26 10:16:21;;;;;;;4.33;4.10;;;23.40;99.90;;;;;;4985540;28;20637;-86
2021/09/26 10:18:50;;;;;;;4.30;4.10;;;23.50;99.90;;;;;;4984678;28;20478;-90
2021/09/26 10:21:17;;;;;;;4.63;4.43;;;23.70;99.90;;;;;;4986310;28;20443;-86
2021/09/26 10:23:47;;;;;;;5.30;4.90;;;23.80;99.90;;;;;;5003755;28;20443;-86
2021/09/26 10:26:17;;;;;;;4.33;4.13;;;23.40;99.90;;;;;;4984550;28;20447;-86
2021/09/26 10:28:45;;;;;;;4.30;4.10;;;23.60;99.90;;;;;;4998368;28;20448;-85
2021/09/26 10:31:15;;;;;;;4.50;4.30;;;23.80;99.90;;;;;;4985532;28;20474;-86
2021/09/26 10:33:46;;;;;;;5.30;5.00;;;24.10;99.90;;;;;;4986631;28;20487;-86
2021/09/26 10:36:18;;;;;;;4.90;4.53;;;24.00;99.90;;;;;;5003062;28;20444;-87
2021/09/26 10:38:48;;;;;;;4.40;4.20;;;23.90;99.90;;;;;;4998089;28;20745;-84
2021/09/26 10:41:16;;;;;;;5.00;4.70;;;23.90;99.90;;;;;;4985680;28;20417;-86
2021/09/26 10:43:44;;;;;;;4.63;4.37;;;24.00;99.90;;;;;;5002929;28;20804;-86
2021/09/26 10:46:20;;;;;;;4.30;4.00;;;24.10;99.90;;;;;;4995676;28;20444;-87
2021/09/26 10:49:04;;;;;;;4.23;4.03;;;24.10;99.90;;;;;;5002894;28;20598;-83
2021/09/26 10:51:56;;;;;;;3.90;3.70;;;23.90;99.90;;;;;;4992831;28;20458;-86
2021/09/26 10:54:30;;;;;;;4.33;4.03;;;24.00;99.90;;;;;;4992276;28;20443;-86
2021/09/26 10:57:03;;;;;;;4.00;3.80;;;24.10;99.90;;;;;;4990597;28;20440;-89
2021/09/26 10:59:48;;;;;;;4.10;3.90;;;23.90;99.90;;;;;;5005146;28;20482;-87
2021/09/26 11:02:36;;;;;;;4.60;4.40;;;23.90;99.90;;;;;;4987656;28;20434;-86
2021/09/26 11:05:25;;;;;;;4.63;4.30;;;23.90;99.90;;;;;;5006145;28;20441;-86
2021/09/26 11:07:53;;;;;;;4.50;4.20;;;23.60;99.90;;;;;;5000768;28;20436;-83
2021/09/26 11:10:43;;;;;;;4.20;4.00;;;23.60;99.90;;;;;;5005319;28;20471;-85
2021/09/26 11:13:14;;;;;;;4.90;4.60;;;23.50;99.90;;;;;;5002316;28;20433;-83
2021/09/26 11:15:59;;;;;;;4.40;4.00;;;23.30;99.90;;;;;;5001788;28;20431;-85
2021/09/26 11:18:45;;;;;;;4.73;4.53;;;23.30;99.90;;;;;;4995563;28;20514;-85
2021/09/26 11:21:38;;;;;;;4.23;4.03;;;23.30;99.90;;;;;;4981341;28;20443;-87
2021/09/26 11:24:06;;;;;;;4.60;4.30;;;23.50;99.90;;;;;;4995093;28;20770;-88
2021/09/26 11:27:02;;;;;;;4.40;4.00;;;23.40;99.90;;;;;;4999005;28;20500;-85
2021/09/26 11:29:56;;;;;;;4.37;4.07;;;23.50;99.90;;;;;;5002585;28;20789;-85
2021/09/26 11:32:23;;;;;;;3.73;3.63;;;23.60;99.90;;;;;;4997421;28;20621;-85
2021/09/26 11:34:58;;;;;;;4.87;4.57;;;23.60;99.90;;;;;;5001835;28;20435;-85
2021/09/26 11:37:35;;;;;;;3.90;3.70;;;23.70;99.90;;;;;;5002187;28;20450;-88
2021/09/26 11:40:04;;;;;;;4.50;4.30;;;23.70;99.90;;;;;;4993492;28;20443;-86
2021/09/26 11:42:36;;;;;;;6.37;5.50;;;23.80;99.90;;;;;;5004932;28;20458;-87
2021/09/26 11:45:10;;;;;;;4.43;4.13;;;23.80;99.90;;;;;;4999470;28;20456;-88
2021/09/26 11:47:37;;;;;;;4.63;4.33;;;23.80;99.90;;;;;;4987702;28;20756;-84
2021/09/26 11:50:10;;;;;;;4.27;3.97;;;23.80;99.90;;;;;;4998249;28;20510;-87
2021/09/26 11:52:43;;;;;;;4.77;4.50;;;23.90;99.90;;;;;;4985553;28;20666;-88
2021/09/26 11:55:13;;;;;;;4.30;4.00;;;24.10;99.90;;;;;;5001978;28;20768;-86
2021/09/26 11:57:44;;;;;;;4.20;4.00;;;24.20;99.90;;;;;;5002295;28;20445;-88
2021/09/26 12:00:26;;;;;;;4.40;4.20;;;23.90;99.90;;;;;;5002967;28;20442;-92
2021/09/26 12:02:54;;;;;;;5.00;4.60;;;24.00;99.90;;;;;;4999640;28;20426;-85
2021/09/26 12:05:38;;;;;;;4.37;4.17;;;24.10;99.90;;;;;;4994250;28;20473;-89
2021/09/26 12:08:06;;;;;;;5.37;5.07;;;24.10;99.90;;;;;;4998398;28;20828;-87
2021/09/26 12:10:34;;;;;;;4.73;4.47;;;24.10;99.90;;;;;;5003722;28;20539;-85
2021/09/26 12:13:15;;;;;;;4.70;4.30;;;24.20;99.90;;;;;;4978570;28;20402;-86
2021/09/26 12:15:43;;;;;;;5.13;4.77;;;24.10;99.90;;;;;;4980631;28;20707;-89
2021/09/26 12:18:25;;;;;;;5.67;5.27;;;24.20;99.90;;;;;;5004640;28;20406;-89
2021/09/26 12:21:07;;;;;;;5.40;5.00;;;24.40;99.90;;;;;;5001580;28;20717;-87
2021/09/26 12:23:49;;;;;;;4.53;4.13;;;24.50;99.90;;;;;;5001091;28;20510;-86
2021/09/26 12:26:46;;;;;;;5.37;4.97;;;24.60;99.90;;;;;;5000507;28;20444;-84
2021/09/26 12:29:22;;;;;;;5.17;4.97;;;24.50;99.90;;;;;;5002007;28;20475;-85
2021/09/26 12:31:55;;;;;;;4.90;4.60;;;24.50;99.90;;;;;;4997018;28;20527;-88
2021/09/26 12:34:30;;;;;;;4.60;4.30;;;24.70;99.90;;;;;;4981957;28;20474;-85
2021/09/26 12:36:59;;;;;;;5.30;5.00;;;24.80;99.90;;;;;;4987009;28;20401;-85
2021/09/26 12:39:39;;;;;;;5.30;5.00;;;24.90;99.90;;;;;;4982335;28;20440;-86
2021/09/26 12:42:15;;;;;;;5.07;4.77;;;24.70;99.90;;;;;;5001480;28;20435;-85
2021/09/26 12:44:42;;;;;;;5.60;5.07;;;24.70;99.90;;;;;;4997414;28;20458;-86
2021/09/26 12:47:15;;;;;;;5.30;5.00;;;24.70;99.90;;;;;;5004177;28;20447;-85
2021/09/26 12:49:44;;;;;;;5.10;4.80;;;24.80;99.90;;;;;;4999304;28;20455;-84
2021/09/26 12:52:29;;;;;;;5.53;5.23;;;24.90;99.90;;;;;;5000558;28;20438;-87
2021/09/26 12:55:05;;;;;;;5.77;5.37;;;25.10;99.90;;;;;;4989475;28;20463;-86
2021/09/26 12:57:34;;;;;;;5.93;5.53;;;25.20;99.90;;;;;;5004647;28;20542;-87